sensor_id;sensor_type;location;lat;lon;timestamp;P1;durP1;ratioP1;P2;durP2;ratioP2
50367;SDS011;36281;34.132;-118.018;2022-07-04T00:00:23;13.32;;;5.38;;
50367;SDS011;36281;34.132;-118.018;2022-07-04T00:02:52;12.63;;;5.00;;
50367;SDS011;36281;34.132;-118.018;2022-07-04T00:05:21;10.07;;;4.60;;
50367;SDS011;36281;34.132;-118.018;2022-07-04T00:07:51;8.18;;;4.90;;
50367;SDS011;36281;34.132;-118.018;2022-07-04T00:10:21;8.48;;;4.88;;
50367;SDS011;36281;34.132;-118.018;2022-07-04T00:12:51;9.02;;;4.75;;
50367;SDS011;36281;34.132;-118.018;2022-07-04T00:15:20;8.77;;;5.25;;
50367;SDS011;36281;34.132;-118.018;2022-07-04T00:17:50;11.93;;;5.40;;
50367;SDS011;36281;34.132;-118.018;2022-07-04T00:20:20;9.77;;;5.07;;
50367;SDS011;36281;34.132;-118.018;2022-07-04T00:22:49;9.32;;;5.20;;
50367;SDS011;36281;34.132;-118.018;2022-07-04T00:25:18;9.80;;;5.22;;
50367;SDS011;36281;34.132;-118.018;2022-07-04T00:27:47;10.88;;;5.20;;
50367;SDS011;36281;34.132;-118.018;2022-07-04T00:30:16;11.35;;;5.82;;
50367;SDS011;36281;34.132;-118.018;2022-07-04T00:32:45;8.55;;;4.80;;
50367;SDS011;36281;34.132;-118.018;2022-07-04T00:35:16;8.95;;;5.20;;
50367;SDS011;36281;34.132;-118.018;2022-07-04T00:37:45;8.68;;;4.82;;
50367;SDS011;36281;34.132;-118.018;2022-07-04T00:40:14;10.35;;;5.15;;
50367;SDS011;36281;34.132;-118.018;2022-07-04T00:42:43;9.98;;;4.82;;
50367;SDS011;36281;34.132;-118.018;2022-07-04T00:45:12;7.55;;;4.80;;
50367;SDS011;36281;34.132;-118.018;2022-07-04T00:47:41;11.43;;;5.55;;
50367;SDS011;36281;34.132;-118.018;2022-07-04T00:50:10;11.60;;;5.93;;
50367;SDS011;36281;34.132;-118.018;2022-07-04T00:52:41;9.73;;;5.53;;
50367;SDS011;36281;34.132;-118.018;2022-07-04T00:55:10;10.40;;;5.80;;
50367;SDS011;36281;34.132;-118.018;2022-07-04T00:57:39;9.82;;;5.22;;
50367;SDS011;36281;34.132;-118.018;2022-07-04T01:00:08;10.77;;;5.50;;
50367;SDS011;36281;34.132;-118.018;2022-07-04T01:02:37;10.88;;;5.20;;
50367;SDS011;36281;34.132;-118.018;2022-07-04T01:05:07;12.07;;;5.28;;
50367;SDS011;36281;34.132;-118.018;2022-07-04T01:07:36;9.63;;;5.03;;
50367;SDS011;36281;34.132;-118.018;2022-07-04T01:10:07;10.65;;;5.00;;
50367;SDS011;36281;34.132;-118.018;2022-07-04T01:12:37;9.95;;;4.90;;
50367;SDS011;36281;34.132;-118.018;2022-07-04T01:15:07;11.05;;;5.63;;
50367;SDS011;36281;34.132;-118.018;2022-07-04T01:17:36;11.25;;;5.25;;
50367;SDS011;36281;34.132;-118.018;2022-07-04T01:22:40;10.52;;;5.38;;
50367;SDS011;36281;34.132;-118.018;2022-07-04T01:25:09;11.43;;;5.40;;
50367;SDS011;36281;34.132;-118.018;2022-07-04T01:27:38;10.68;;;5.30;;
50367;SDS011;36281;34.132;-118.018;2022-07-04T01:30:07;15.20;;;6.15;;
50367;SDS011;36281;34.132;-118.018;2022-07-04T01:32:37;10.23;;;5.22;;
50367;SDS011;36281;34.132;-118.018;2022-07-04T01:35:07;12.27;;;5.18;;
50367;SDS011;36281;34.132;-118.018;2022-07-04T01:37:38;12.90;;;5.70;;
50367;SDS011;36281;34.132;-118.018;2022-07-04T01:40:08;7.05;;;5.15;;
50367;SDS011;36281;34.132;-118.018;2022-07-04T01:42:39;10.73;;;5.43;;
50367;SDS011;36281;34.132;-118.018;2022-07-04T01:45:09;10.00;;;5.25;;
50367;SDS011;36281;34.132;-118.018;2022-07-04T01:47:39;9.77;;;5.28;;
50367;SDS011;36281;34.132;-118.018;2022-07-04T01:50:09;8.90;;;5.32;;
50367;SDS011;36281;34.132;-118.018;2022-07-04T01:52:43;10.63;;;5.25;;
50367;SDS011;36281;34.132;-118.018;2022-07-04T01:55:12;9.35;;;4.97;;
50367;SDS011;36281;34.132;-118.018;2022-07-04T01:57:41;8.65;;;5.10;;
50367;SDS011;36281;34.132;-118.018;2022-07-04T02:00:10;7.18;;;4.88;;
50367;SDS011;36281;34.132;-118.018;2022-07-04T02:02:58;11.25;;;5.20;;
50367;SDS011;36281;34.132;-118.018;2022-07-04T02:05:27;8.95;;;4.95;;
50367;SDS011;36281;34.132;-118.018;2022-07-04T02:07:58;9.43;;;5.22;;
50367;SDS011;36281;34.132;-118.018;2022-07-04T02:10:27;8.20;;;5.30;;
50367;SDS011;36281;34.132;-118.018;2022-07-04T02:12:56;10.50;;;5.35;;
50367;SDS011;36281;34.132;-118.018;2022-07-04T02:15:28;9.23;;;4.88;;
50367;SDS011;36281;34.132;-118.018;2022-07-04T02:17:58;7.47;;;4.75;;
50367;SDS011;36281;34.132;-118.018;2022-07-04T02:20:28;9.38;;;4.70;;
50367;SDS011;36281;34.132;-118.018;2022-07-04T02:22:59;10.50;;;4.78;;
50367;SDS011;36281;34.132;-118.018;2022-07-04T02:25:28;10.73;;;5.07;;
50367;SDS011;36281;34.132;-118.018;2022-07-04T02:27:57;9.43;;;4.88;;
50367;SDS011;36281;34.132;-118.018;2022-07-04T02:30:26;9.27;;;5.05;;
50367;SDS011;36281;34.132;-118.018;2022-07-04T02:32:55;9.25;;;4.80;;
50367;SDS011;36281;34.132;-118.018;2022-07-04T02:35:24;10.57;;;5.30;;
50367;SDS011;36281;34.132;-118.018;2022-07-04T02:37:53;8.93;;;5.28;;
50367;SDS011;36281;34.132;-118.018;2022-07-04T02:40:27;9.30;;;5.07;;
50367;SDS011;36281;34.132;-118.018;2022-07-04T02:42:56;9.25;;;4.95;;
50367;SDS011;36281;34.132;-118.018;2022-07-04T02:45:25;8.93;;;4.93;;
50367;SDS011;36281;34.132;-118.018;2022-07-04T02:47:54;11.50;;;4.82;;
50367;SDS011;36281;34.132;-118.018;2022-07-04T02:50:23;8.02;;;5.05;;
50367;SDS011;36281;34.132;-118.018;2022-07-04T02:52:52;8.68;;;5.40;;
50367;SDS011;36281;34.132;-118.018;2022-07-04T02:55:21;12.50;;;5.43;;
50367;SDS011;36281;34.132;-118.018;2022-07-04T02:57:51;13.88;;;5.68;;
50367;SDS011;36281;34.132;-118.018;2022-07-04T03:00:20;8.77;;;5.38;;
50367;SDS011;36281;34.132;-118.018;2022-07-04T03:02:49;10.52;;;5.20;;
50367;SDS011;36281;34.132;-118.018;2022-07-04T03:05:19;10.55;;;5.07;;
50367;SDS011;36281;34.132;-118.018;2022-07-04T03:07:48;12.20;;;5.10;;
50367;SDS011;36281;34.132;-118.018;2022-07-04T03:10:17;12.18;;;4.93;;
50367;SDS011;36281;34.132;-118.018;2022-07-04T03:12:46;10.13;;;5.25;;
50367;SDS011;36281;34.132;-118.018;2022-07-04T03:15:17;9.90;;;5.03;;
50367;SDS011;36281;34.132;-118.018;2022-07-04T03:17:46;12.27;;;5.25;;
50367;SDS011;36281;34.132;-118.018;2022-07-04T03:20:15;10.27;;;5.15;;
50367;SDS011;36281;34.132;-118.018;2022-07-04T03:22:44;10.15;;;5.10;;
50367;SDS011;36281;34.132;-118.018;2022-07-04T03:25:13;9.88;;;5.38;;
50367;SDS011;36281;34.132;-118.018;2022-07-04T03:27:42;8.82;;;5.35;;
50367;SDS011;36281;34.132;-118.018;2022-07-04T03:30:11;8.70;;;5.10;;
50367;SDS011;36281;34.132;-118.018;2022-07-04T03:32:42;10.75;;;5.45;;
50367;SDS011;36281;34.132;-118.018;2022-07-04T03:35:11;10.45;;;5.47;;
50367;SDS011;36281;34.132;-118.018;2022-07-04T03:37:40;9.05;;;6.00;;
50367;SDS011;36281;34.132;-118.018;2022-07-04T03:40:09;10.18;;;5.60;;
50367;SDS011;36281;34.132;-118.018;2022-07-04T03:42:38;10.32;;;5.95;;
50367;SDS011;36281;34.132;-118.018;2022-07-04T03:45:08;9.25;;;5.47;;
50367;SDS011;36281;34.132;-118.018;2022-07-04T03:47:38;8.23;;;5.22;;
50367;SDS011;36281;34.132;-118.018;2022-07-04T03:50:09;9.45;;;5.88;;
50367;SDS011;36281;34.132;-118.018;2022-07-04T03:52:38;7.75;;;5.35;;
50367;SDS011;36281;34.132;-118.018;2022-07-04T03:55:07;15.98;;;5.97;;
50367;SDS011;36281;34.132;-118.018;2022-07-04T03:57:37;16.25;;;5.97;;
50367;SDS011;36281;34.132;-118.018;2022-07-04T04:00:06;9.95;;;5.38;;
50367;SDS011;36281;34.132;-118.018;2022-07-04T04:02:37;11.27;;;6.03;;
50367;SDS011;36281;34.132;-118.018;2022-07-04T04:07:55;11.07;;;5.72;;
50367;SDS011;36281;34.132;-118.018;2022-07-04T04:10:25;10.30;;;5.60;;
50367;SDS011;36281;34.132;-118.018;2022-07-04T04:12:56;11.73;;;5.85;;
50367;SDS011;36281;34.132;-118.018;2022-07-04T04:15:26;9.40;;;5.95;;
50367;SDS011;36281;34.132;-118.018;2022-07-04T04:17:55;14.70;;;5.60;;
50367;SDS011;36281;34.132;-118.018;2022-07-04T04:20:25;8.55;;;5.40;;
50367;SDS011;36281;34.132;-118.018;2022-07-04T04:22:54;9.38;;;5.38;;
50367;SDS011;36281;34.132;-118.018;2022-07-04T04:25:23;12.18;;;6.13;;
50367;SDS011;36281;34.132;-118.018;2022-07-04T04:27:52;9.73;;;6.18;;
50367;SDS011;36281;34.132;-118.018;2022-07-04T04:30:21;9.95;;;6.10;;
50367;SDS011;36281;34.132;-118.018;2022-07-04T04:32:50;11.18;;;6.20;;
50367;SDS011;36281;34.132;-118.018;2022-07-04T04:35:19;10.60;;;6.47;;
50367;SDS011;36281;34.132;-118.018;2022-07-04T04:37:50;9.38;;;5.95;;
50367;SDS011;36281;34.132;-118.018;2022-07-04T04:40:19;9.73;;;5.70;;
50367;SDS011;36281;34.132;-118.018;2022-07-04T04:42:48;9.10;;;5.53;;
50367;SDS011;36281;34.132;-118.018;2022-07-04T04:45:17;8.60;;;5.82;;
50367;SDS011;36281;34.132;-118.018;2022-07-04T04:47:46;10.02;;;5.47;;
50367;SDS011;36281;34.132;-118.018;2022-07-04T04:50:15;8.30;;;5.38;;
50367;SDS011;36281;34.132;-118.018;2022-07-04T04:52:44;8.35;;;5.53;;
50367;SDS011;36281;34.132;-118.018;2022-07-04T04:55:15;11.00;;;6.90;;
50367;SDS011;36281;34.132;-118.018;2022-07-04T04:57:44;10.45;;;7.70;;
50367;SDS011;36281;34.132;-118.018;2022-07-04T05:00:13;12.02;;;7.68;;
50367;SDS011;36281;34.132;-118.018;2022-07-04T05:02:42;15.85;;;9.32;;
50367;SDS011;36281;34.132;-118.018;2022-07-04T05:05:11;16.05;;;9.77;;
50367;SDS011;36281;34.132;-118.018;2022-07-04T05:07:40;13.65;;;9.68;;
50367;SDS011;36281;34.132;-118.018;2022-07-04T05:10:09;11.85;;;9.32;;
50367;SDS011;36281;34.132;-118.018;2022-07-04T05:12:40;14.02;;;9.45;;
50367;SDS011;36281;34.132;-118.018;2022-07-04T05:15:09;13.85;;;9.45;;
50367;SDS011;36281;34.132;-118.018;2022-07-04T05:17:39;16.08;;;9.50;;
50367;SDS011;36281;34.132;-118.018;2022-07-04T05:20:08;13.32;;;7.70;;
50367;SDS011;36281;34.132;-118.018;2022-07-04T05:22:37;11.43;;;7.40;;
50367;SDS011;36281;34.132;-118.018;2022-07-04T05:25:07;11.48;;;7.25;;
50367;SDS011;36281;34.132;-118.018;2022-07-04T05:27:36;9.43;;;6.70;;
50367;SDS011;36281;34.132;-118.018;2022-07-04T05:30:07;12.57;;;6.88;;
50367;SDS011;36281;34.132;-118.018;2022-07-04T05:32:38;8.13;;;5.70;;
50367;SDS011;36281;34.132;-118.018;2022-07-04T05:35:10;10.45;;;6.57;;
50367;SDS011;36281;34.132;-118.018;2022-07-04T05:37:39;12.52;;;6.63;;
50367;SDS011;36281;34.132;-118.018;2022-07-04T05:40:08;10.35;;;6.07;;
50367;SDS011;36281;34.132;-118.018;2022-07-04T05:42:38;14.43;;;6.63;;
50367;SDS011;36281;34.132;-118.018;2022-07-04T05:45:09;13.57;;;6.63;;
50367;SDS011;36281;34.132;-118.018;2022-07-04T05:47:38;12.65;;;6.88;;
50367;SDS011;36281;34.132;-118.018;2022-07-04T05:50:07;10.82;;;6.63;;
50367;SDS011;36281;34.132;-118.018;2022-07-04T05:52:37;11.85;;;6.65;;
50367;SDS011;36281;34.132;-118.018;2022-07-04T05:55:06;12.30;;;6.50;;
50367;SDS011;36281;34.132;-118.018;2022-07-04T05:57:36;11.07;;;6.38;;
50367;SDS011;36281;34.132;-118.018;2022-07-04T06:00:13;11.10;;;6.88;;
50367;SDS011;36281;34.132;-118.018;2022-07-04T06:02:42;11.30;;;6.95;;
50367;SDS011;36281;34.132;-118.018;2022-07-04T06:05:11;11.18;;;6.90;;
50367;SDS011;36281;34.132;-118.018;2022-07-04T06:07:40;12.23;;;6.90;;
50367;SDS011;36281;34.132;-118.018;2022-07-04T06:10:10;12.57;;;7.00;;
50367;SDS011;36281;34.132;-118.018;2022-07-04T06:12:39;10.07;;;6.13;;
50367;SDS011;36281;34.132;-118.018;2022-07-04T06:15:08;11.07;;;5.97;;
50367;SDS011;36281;34.132;-118.018;2022-07-04T06:17:40;10.57;;;6.10;;
50367;SDS011;36281;34.132;-118.018;2022-07-04T06:20:09;11.93;;;5.90;;
50367;SDS011;36281;34.132;-118.018;2022-07-04T06:22:39;13.07;;;6.30;;
50367;SDS011;36281;34.132;-118.018;2022-07-04T06:25:10;12.10;;;5.50;;
50367;SDS011;36281;34.132;-118.018;2022-07-04T06:27:39;10.18;;;5.80;;
50367;SDS011;36281;34.132;-118.018;2022-07-04T06:30:09;10.07;;;5.55;;
50367;SDS011;36281;34.132;-118.018;2022-07-04T06:32:44;10.55;;;5.65;;
50367;SDS011;36281;34.132;-118.018;2022-07-04T06:35:16;11.10;;;5.88;;
50367;SDS011;36281;34.132;-118.018;2022-07-04T06:38:04;10.70;;;6.03;;
50367;SDS011;36281;34.132;-118.018;2022-07-04T06:40:33;11.00;;;6.25;;
50367;SDS011;36281;34.132;-118.018;2022-07-04T06:43:03;10.88;;;6.22;;
50367;SDS011;36281;34.132;-118.018;2022-07-04T06:45:32;10.05;;;5.72;;
50367;SDS011;36281;34.132;-118.018;2022-07-04T06:48:04;10.65;;;6.00;;
50367;SDS011;36281;34.132;-118.018;2022-07-04T06:50:34;12.40;;;5.75;;
50367;SDS011;36281;34.132;-118.018;2022-07-04T06:53:06;11.25;;;5.75;;
50367;SDS011;36281;34.132;-118.018;2022-07-04T06:55:36;16.27;;;6.03;;
50367;SDS011;36281;34.132;-118.018;2022-07-04T06:58:06;10.57;;;5.40;;
50367;SDS011;36281;34.132;-118.018;2022-07-04T07:00:36;10.73;;;5.93;;
50367;SDS011;36281;34.132;-118.018;2022-07-04T07:03:07;9.48;;;5.40;;
50367;SDS011;36281;34.132;-118.018;2022-07-04T07:05:36;8.27;;;5.30;;
50367;SDS011;36281;34.132;-118.018;2022-07-04T07:08:25;8.88;;;5.28;;
50367;SDS011;36281;34.132;-118.018;2022-07-04T07:10:54;8.32;;;5.65;;
50367;SDS011;36281;34.132;-118.018;2022-07-04T07:13:23;9.68;;;5.30;;
50367;SDS011;36281;34.132;-118.018;2022-07-04T07:15:52;8.73;;;5.20;;
50367;SDS011;36281;34.132;-118.018;2022-07-04T07:18:23;9.38;;;5.47;;
50367;SDS011;36281;34.132;-118.018;2022-07-04T07:20:52;11.82;;;6.28;;
50367;SDS011;36281;34.132;-118.018;2022-07-04T07:23:21;13.20;;;6.28;;
50367;SDS011;36281;34.132;-118.018;2022-07-04T07:25:50;15.75;;;5.85;;
50367;SDS011;36281;34.132;-118.018;2022-07-04T07:28:19;10.48;;;5.70;;
50367;SDS011;36281;34.132;-118.018;2022-07-04T07:30:48;10.88;;;6.50;;
50367;SDS011;36281;34.132;-118.018;2022-07-04T07:33:17;9.27;;;6.10;;
50367;SDS011;36281;34.132;-118.018;2022-07-04T07:35:48;11.13;;;6.38;;
50367;SDS011;36281;34.132;-118.018;2022-07-04T07:38:17;10.75;;;6.35;;
50367;SDS011;36281;34.132;-118.018;2022-07-04T07:40:46;9.55;;;6.68;;
50367;SDS011;36281;34.132;-118.018;2022-07-04T07:43:15;13.15;;;6.60;;
50367;SDS011;36281;34.132;-118.018;2022-07-04T07:45:44;11.82;;;6.50;;
50367;SDS011;36281;34.132;-118.018;2022-07-04T07:48:13;11.90;;;7.05;;
50367;SDS011;36281;34.132;-118.018;2022-07-04T07:50:42;12.98;;;6.97;;
50367;SDS011;36281;34.132;-118.018;2022-07-04T07:53:12;19.02;;;7.97;;
50367;SDS011;36281;34.132;-118.018;2022-07-04T07:55:41;14.00;;;7.18;;
50367;SDS011;36281;34.132;-118.018;2022-07-04T07:58:10;12.25;;;6.90;;
50367;SDS011;36281;34.132;-118.018;2022-07-04T08:00:39;10.57;;;7.20;;
50367;SDS011;36281;34.132;-118.018;2022-07-04T08:03:24;12.85;;;7.22;;
50367;SDS011;36281;34.132;-118.018;2022-07-04T08:06:11;11.88;;;7.35;;
50367;SDS011;36281;34.132;-118.018;2022-07-04T08:08:42;13.75;;;7.07;;
50367;SDS011;36281;34.132;-118.018;2022-07-04T08:11:12;12.73;;;7.75;;
50367;SDS011;36281;34.132;-118.018;2022-07-04T08:13:41;12.88;;;7.38;;
50367;SDS011;36281;34.132;-118.018;2022-07-04T08:16:10;13.07;;;7.57;;
50367;SDS011;36281;34.132;-118.018;2022-07-04T08:18:39;14.80;;;8.23;;
50367;SDS011;36281;34.132;-118.018;2022-07-04T08:21:08;15.95;;;7.82;;
50367;SDS011;36281;34.132;-118.018;2022-07-04T08:23:39;12.15;;;7.63;;
50367;SDS011;36281;34.132;-118.018;2022-07-04T08:26:30;11.77;;;7.90;;
50367;SDS011;36281;34.132;-118.018;2022-07-04T08:28:59;13.65;;;8.30;;
50367;SDS011;36281;34.132;-118.018;2022-07-04T08:31:29;15.38;;;8.43;;
50367;SDS011;36281;34.132;-118.018;2022-07-04T08:34:17;11.68;;;8.50;;
50367;SDS011;36281;34.132;-118.018;2022-07-04T08:36:46;14.00;;;8.50;;
50367;SDS011;36281;34.132;-118.018;2022-07-04T08:39:15;13.25;;;8.07;;
50367;SDS011;36281;34.132;-118.018;2022-07-04T08:41:46;15.27;;;8.52;;
50367;SDS011;36281;34.132;-118.018;2022-07-04T08:44:17;14.70;;;9.07;;
50367;SDS011;36281;34.132;-118.018;2022-07-04T08:46:49;14.27;;;8.98;;
50367;SDS011;36281;34.132;-118.018;2022-07-04T08:49:21;14.05;;;8.82;;
50367;SDS011;36281;34.132;-118.018;2022-07-04T08:51:52;11.75;;;8.73;;
50367;SDS011;36281;34.132;-118.018;2022-07-04T08:54:26;13.07;;;8.80;;
50367;SDS011;36281;34.132;-118.018;2022-07-04T08:57:17;12.77;;;9.07;;
50367;SDS011;36281;34.132;-118.018;2022-07-04T09:00:05;16.45;;;9.90;;
50367;SDS011;36281;34.132;-118.018;2022-07-04T09:02:35;14.48;;;9.98;;
50367;SDS011;36281;34.132;-118.018;2022-07-04T09:05:06;20.25;;;10.52;;
50367;SDS011;36281;34.132;-118.018;2022-07-04T09:07:36;15.93;;;9.65;;
50367;SDS011;36281;34.132;-118.018;2022-07-04T09:10:06;15.52;;;9.45;;
50367;SDS011;36281;34.132;-118.018;2022-07-04T09:12:38;15.68;;;9.05;;
50367;SDS011;36281;34.132;-118.018;2022-07-04T09:15:27;15.10;;;9.73;;
50367;SDS011;36281;34.132;-118.018;2022-07-04T09:17:56;17.75;;;9.57;;
50367;SDS011;36281;34.132;-118.018;2022-07-04T09:20:31;15.48;;;9.68;;
50367;SDS011;36281;34.132;-118.018;2022-07-04T09:23:01;16.05;;;9.98;;
50367;SDS011;36281;34.132;-118.018;2022-07-04T09:25:45;19.27;;;9.98;;
50367;SDS011;36281;34.132;-118.018;2022-07-04T09:28:27;17.63;;;9.02;;
50367;SDS011;36281;34.132;-118.018;2022-07-04T09:30:56;16.92;;;10.00;;
50367;SDS011;36281;34.132;-118.018;2022-07-04T09:36:23;16.05;;;9.27;;
50367;SDS011;36281;34.132;-118.018;2022-07-04T09:39:06;15.30;;;9.93;;
50367;SDS011;36281;34.132;-118.018;2022-07-04T09:41:52;13.20;;;9.35;;
50367;SDS011;36281;34.132;-118.018;2022-07-04T09:44:25;13.25;;;8.80;;
50367;SDS011;36281;34.132;-118.018;2022-07-04T09:46:56;14.57;;;9.15;;
50367;SDS011;36281;34.132;-118.018;2022-07-04T09:49:25;16.27;;;9.10;;
50367;SDS011;36281;34.132;-118.018;2022-07-04T09:51:54;13.73;;;8.98;;
50367;SDS011;36281;34.132;-118.018;2022-07-04T09:54:24;17.10;;;9.30;;
50367;SDS011;36281;34.132;-118.018;2022-07-04T09:56:55;15.65;;;8.27;;
50367;SDS011;36281;34.132;-118.018;2022-07-04T09:59:27;13.93;;;8.68;;
50367;SDS011;36281;34.132;-118.018;2022-07-04T10:02:07;16.38;;;8.80;;
50367;SDS011;36281;34.132;-118.018;2022-07-04T10:04:43;19.73;;;9.07;;
50367;SDS011;36281;34.132;-118.018;2022-07-04T10:07:32;17.25;;;9.27;;
50367;SDS011;36281;34.132;-118.018;2022-07-04T10:13:08;14.43;;;8.95;;
50367;SDS011;36281;34.132;-118.018;2022-07-04T10:15:40;13.32;;;9.07;;
50367;SDS011;36281;34.132;-118.018;2022-07-04T10:18:10;12.73;;;8.48;;
50367;SDS011;36281;34.132;-118.018;2022-07-04T10:20:39;18.58;;;8.82;;
50367;SDS011;36281;34.132;-118.018;2022-07-04T10:23:11;13.02;;;8.52;;
50367;SDS011;36281;34.132;-118.018;2022-07-04T10:25:45;16.10;;;8.60;;
50367;SDS011;36281;34.132;-118.018;2022-07-04T10:28:15;16.25;;;8.32;;
50367;SDS011;36281;34.132;-118.018;2022-07-04T10:30:47;16.50;;;8.13;;
50367;SDS011;36281;34.132;-118.018;2022-07-04T10:33:22;19.98;;;9.48;;
50367;SDS011;36281;34.132;-118.018;2022-07-04T10:35:52;14.20;;;8.60;;
50367;SDS011;36281;34.132;-118.018;2022-07-04T10:38:22;15.05;;;8.95;;
50367;SDS011;36281;34.132;-118.018;2022-07-04T10:40:52;15.50;;;8.07;;
50367;SDS011;36281;34.132;-118.018;2022-07-04T10:49:25;14.77;;;8.25;;
50367;SDS011;36281;34.132;-118.018;2022-07-04T10:51:56;14.05;;;8.07;;
50367;SDS011;36281;34.132;-118.018;2022-07-04T10:54:40;16.50;;;8.77;;
50367;SDS011;36281;34.132;-118.018;2022-07-04T10:57:10;18.35;;;8.23;;
50367;SDS011;36281;34.132;-118.018;2022-07-04T10:59:42;19.17;;;8.68;;
50367;SDS011;36281;34.132;-118.018;2022-07-04T11:02:23;15.90;;;8.07;;
50367;SDS011;36281;34.132;-118.018;2022-07-04T11:04:56;17.40;;;8.50;;
50367;SDS011;36281;34.132;-118.018;2022-07-04T11:10:29;16.05;;;8.60;;
50367;SDS011;36281;34.132;-118.018;2022-07-04T11:13:16;18.67;;;8.85;;
50367;SDS011;36281;34.132;-118.018;2022-07-04T11:16:02;18.40;;;7.90;;
50367;SDS011;36281;34.132;-118.018;2022-07-04T11:18:40;15.85;;;7.38;;
50367;SDS011;36281;34.132;-118.018;2022-07-04T11:21:22;17.80;;;8.05;;
50367;SDS011;36281;34.132;-118.018;2022-07-04T11:23:53;13.77;;;8.35;;
50367;SDS011;36281;34.132;-118.018;2022-07-04T11:26:23;18.58;;;8.00;;
50367;SDS011;36281;34.132;-118.018;2022-07-04T11:28:53;13.73;;;7.45;;
50367;SDS011;36281;34.132;-118.018;2022-07-04T11:31:34;13.35;;;7.78;;
50367;SDS011;36281;34.132;-118.018;2022-07-04T11:34:06;15.18;;;8.00;;
50367;SDS011;36281;34.132;-118.018;2022-07-04T11:36:36;14.27;;;8.18;;
50367;SDS011;36281;34.132;-118.018;2022-07-04T11:39:07;14.57;;;8.00;;
50367;SDS011;36281;34.132;-118.018;2022-07-04T11:41:37;13.60;;;8.02;;
50367;SDS011;36281;34.132;-118.018;2022-07-04T11:44:26;21.65;;;7.30;;
50367;SDS011;36281;34.132;-118.018;2022-07-04T11:47:15;17.70;;;7.47;;
50367;SDS011;36281;34.132;-118.018;2022-07-04T11:49:49;18.40;;;7.30;;
50367;SDS011;36281;34.132;-118.018;2022-07-04T11:52:20;20.08;;;7.35;;
50367;SDS011;36281;34.132;-118.018;2022-07-04T11:55:11;15.80;;;6.57;;
50367;SDS011;36281;34.132;-118.018;2022-07-04T11:57:41;13.90;;;6.97;;
50367;SDS011;36281;34.132;-118.018;2022-07-04T12:00:12;13.13;;;6.07;;
50367;SDS011;36281;34.132;-118.018;2022-07-04T12:02:43;12.52;;;6.45;;
50367;SDS011;36281;34.132;-118.018;2022-07-04T12:05:15;15.63;;;6.50;;
50367;SDS011;36281;34.132;-118.018;2022-07-04T12:07:46;13.45;;;6.35;;
50367;SDS011;36281;34.132;-118.018;2022-07-04T12:10:36;15.27;;;5.75;;
50367;SDS011;36281;34.132;-118.018;2022-07-04T12:13:06;13.98;;;6.45;;
50367;SDS011;36281;34.132;-118.018;2022-07-04T12:15:39;13.90;;;6.07;;
50367;SDS011;36281;34.132;-118.018;2022-07-04T12:18:15;14.00;;;5.97;;
50367;SDS011;36281;34.132;-118.018;2022-07-04T12:20:47;16.13;;;6.35;;
50367;SDS011;36281;34.132;-118.018;2022-07-04T12:23:18;14.52;;;6.75;;
50367;SDS011;36281;34.132;-118.018;2022-07-04T12:25:48;15.13;;;6.75;;
50367;SDS011;36281;34.132;-118.018;2022-07-04T12:28:19;12.32;;;6.25;;
50367;SDS011;36281;34.132;-118.018;2022-07-04T12:30:53;13.77;;;6.30;;
50367;SDS011;36281;34.132;-118.018;2022-07-04T12:33:24;15.18;;;5.68;;
50367;SDS011;36281;34.132;-118.018;2022-07-04T12:35:56;14.93;;;6.97;;
50367;SDS011;36281;34.132;-118.018;2022-07-04T12:38:33;16.38;;;6.25;;
50367;SDS011;36281;34.132;-118.018;2022-07-04T12:41:04;14.85;;;6.47;;
50367;SDS011;36281;34.132;-118.018;2022-07-04T12:43:44;12.57;;;6.10;;
50367;SDS011;36281;34.132;-118.018;2022-07-04T12:46:25;16.98;;;6.38;;
50367;SDS011;36281;34.132;-118.018;2022-07-04T12:48:56;15.70;;;6.70;;
50367;SDS011;36281;34.132;-118.018;2022-07-04T12:51:30;16.38;;;6.20;;
50367;SDS011;36281;34.132;-118.018;2022-07-04T12:54:05;11.73;;;6.22;;
50367;SDS011;36281;34.132;-118.018;2022-07-04T12:56:36;14.45;;;5.93;;
50367;SDS011;36281;34.132;-118.018;2022-07-04T12:59:08;12.15;;;5.90;;
50367;SDS011;36281;34.132;-118.018;2022-07-04T13:01:39;15.48;;;6.88;;
50367;SDS011;36281;34.132;-118.018;2022-07-04T13:04:09;12.65;;;6.18;;
50367;SDS011;36281;34.132;-118.018;2022-07-04T13:06:43;13.40;;;5.90;;
50367;SDS011;36281;34.132;-118.018;2022-07-04T13:09:12;16.33;;;5.80;;
50367;SDS011;36281;34.132;-118.018;2022-07-04T13:11:41;14.73;;;6.07;;
50367;SDS011;36281;34.132;-118.018;2022-07-04T13:14:28;15.18;;;6.00;;
50367;SDS011;36281;34.132;-118.018;2022-07-04T13:16:57;18.17;;;6.25;;
50367;SDS011;36281;34.132;-118.018;2022-07-04T13:19:26;11.77;;;5.72;;
50367;SDS011;36281;34.132;-118.018;2022-07-04T13:21:56;17.50;;;6.10;;
50367;SDS011;36281;34.132;-118.018;2022-07-04T13:24:26;15.63;;;6.22;;
50367;SDS011;36281;34.132;-118.018;2022-07-04T13:26:55;14.23;;;6.05;;
50367;SDS011;36281;34.132;-118.018;2022-07-04T13:29:26;16.25;;;6.20;;
50367;SDS011;36281;34.132;-118.018;2022-07-04T13:31:55;14.18;;;6.35;;
50367;SDS011;36281;34.132;-118.018;2022-07-04T13:34:24;15.15;;;6.30;;
50367;SDS011;36281;34.132;-118.018;2022-07-04T13:36:53;14.32;;;6.45;;
50367;SDS011;36281;34.132;-118.018;2022-07-04T13:39:24;13.50;;;6.47;;
50367;SDS011;36281;34.132;-118.018;2022-07-04T13:42:13;14.30;;;6.45;;
50367;SDS011;36281;34.132;-118.018;2022-07-04T13:45:03;12.10;;;6.95;;
50367;SDS011;36281;34.132;-118.018;2022-07-04T13:47:33;21.30;;;8.98;;
50367;SDS011;36281;34.132;-118.018;2022-07-04T13:50:02;19.92;;;9.15;;
50367;SDS011;36281;34.132;-118.018;2022-07-04T13:52:33;17.73;;;9.43;;
50367;SDS011;36281;34.132;-118.018;2022-07-04T13:55:03;17.30;;;9.05;;
50367;SDS011;36281;34.132;-118.018;2022-07-04T13:57:32;14.90;;;9.25;;
50367;SDS011;36281;34.132;-118.018;2022-07-04T14:00:01;15.13;;;9.07;;
50367;SDS011;36281;34.132;-118.018;2022-07-04T14:02:31;17.63;;;8.88;;
50367;SDS011;36281;34.132;-118.018;2022-07-04T14:05:00;15.75;;;9.38;;
50367;SDS011;36281;34.132;-118.018;2022-07-04T14:07:30;15.30;;;9.30;;
50367;SDS011;36281;34.132;-118.018;2022-07-04T14:10:02;13.32;;;8.65;;
50367;SDS011;36281;34.132;-118.018;2022-07-04T14:12:32;15.18;;;9.65;;
50367;SDS011;36281;34.132;-118.018;2022-07-04T14:15:01;17.00;;;9.75;;
50367;SDS011;36281;34.132;-118.018;2022-07-04T14:17:30;13.80;;;9.20;;
50367;SDS011;36281;34.132;-118.018;2022-07-04T14:20:02;18.00;;;9.30;;
50367;SDS011;36281;34.132;-118.018;2022-07-04T14:22:32;17.40;;;8.63;;
50367;SDS011;36281;34.132;-118.018;2022-07-04T14:25:03;17.67;;;9.20;;
50367;SDS011;36281;34.132;-118.018;2022-07-04T14:27:33;17.95;;;9.50;;
50367;SDS011;36281;34.132;-118.018;2022-07-04T14:30:03;16.17;;;9.60;;
50367;SDS011;36281;34.132;-118.018;2022-07-04T14:32:33;16.83;;;9.00;;
50367;SDS011;36281;34.132;-118.018;2022-07-04T14:35:03;16.90;;;9.30;;
50367;SDS011;36281;34.132;-118.018;2022-07-04T14:37:37;19.17;;;9.07;;
50367;SDS011;36281;34.132;-118.018;2022-07-04T14:40:09;13.98;;;8.05;;
50367;SDS011;36281;34.132;-118.018;2022-07-04T14:42:39;14.80;;;9.02;;